Time;durP1;ratioP1;P1;durP2;ratioP2;P2;SDS_P1;SDS_P2;PMS_P1;PMS_P2;Temp;Humidity;BMP_temperature;BMP_pressure;BME280_temperature;BME280_humidity;BME280_pressure;Samples;Min_cycle;Max_cycle;Signal;HPM_P1;HPM_P2
2023/01/02 05:00:32;;;;;;;5.45;1.83;;;11.10;99.90;;;;;;5783732;23;21194;-65
2023/01/02 05:03:00;;;;;;;5.03;1.98;;;11.10;99.90;;;;;;4911210;29;20208;-65
2023/01/02 05:05:27;;;;;;;4.38;1.83;;;11.10;99.90;;;;;;4907128;29;20573;-65
2023/01/02 05:07:54;;;;;;;14.25;2.88;;;11.10;99.90;;;;;;4915933;29;20212;-66
2023/01/02 05:10:21;;;;;;;1.25;1.25;;;11.10;99.90;;;;;;4921269;29;20220;-65
2023/01/02 05:12:47;;;;;;;3.20;1.58;;;11.10;99.90;;;;;;4916603;29;20204;-66
2023/01/02 05:15:14;;;;;;;1.70;1.42;;;11.20;99.90;;;;;;4914118;29;20219;-65
2023/01/02 05:17:42;;;;;;;2.42;2.42;;;11.20;99.90;;;;;;4915031;29;20236;-66
2023/01/02 05:20:11;;;;;;;2.15;1.23;;;11.20;99.90;;;;;;4914518;29;20695;-66
2023/01/02 05:25:23;;;;;;;1.52;1.42;;;11.30;99.90;;;;;;4935246;29;20282;-72
2023/01/02 05:27:52;;;;;;;2.08;1.98;;;11.40;99.90;;;;;;4935933;29;20567;-69
2023/01/02 05:30:18;;;;;;;2.78;2.58;;;11.40;99.90;;;;;;4935299;29;20218;-68
2023/01/02 05:32:47;;;;;;;2.95;2.33;;;11.40;99.90;;;;;;4931389;29;20602;-70
2023/01/02 05:35:13;;;;;;;1.23;1.23;;;11.50;99.90;;;;;;4929776;29;20375;-68
2023/01/02 05:37:41;;;;;;;2.28;1.55;;;11.50;99.90;;;;;;4937184;29;20231;-67
2023/01/02 05:40:08;;;;;;;7.43;2.13;;;11.50;99.90;;;;;;4921383;29;20235;-68
2023/01/02 05:42:35;;;;;;;3.70;2.10;;;11.50;99.90;;;;;;4937702;29;20230;-68
2023/01/02 05:45:02;;;;;;;0.93;0.93;;;11.50;99.90;;;;;;4934590;29;20474;-69
2023/01/02 05:47:28;;;;;;;1.15;1.15;;;11.50;99.90;;;;;;4942008;28;20213;-68
2023/01/02 05:49:56;;;;;;;1.50;1.40;;;11.50;99.90;;;;;;4927641;29;20212;-69
2023/01/02 05:52:23;;;;;;;2.97;1.80;;;11.50;99.90;;;;;;4935061;29;20711;-69
2023/01/02 05:54:50;;;;;;;2.92;1.35;;;11.50;99.90;;;;;;4928445;29;20501;-67
2023/01/02 05:57:17;;;;;;;1.77;1.67;;;11.50;99.90;;;;;;4936891;29;20215;-68
2023/01/02 05:59:43;;;;;;;1.75;1.65;;;11.50;99.90;;;;;;4930115;29;20232;-69
2023/01/02 06:02:10;;;;;;;2.70;1.67;;;11.50;99.90;;;;;;4940181;29;20246;-68
2023/01/02 06:04:37;;;;;;;1.57;1.57;;;11.50;99.90;;;;;;4918953;29;20562;-68
2023/01/02 06:07:05;;;;;;;5.70;1.80;;;11.60;99.90;;;;;;4943586;29;20466;-69
2023/01/02 06:09:31;;;;;;;2.10;2.00;;;11.60;99.90;;;;;;4932741;29;20464;-69
2023/01/02 06:11:58;;;;;;;1.75;1.40;;;11.60;99.90;;;;;;4942839;29;20491;-69
2023/01/02 06:14:26;;;;;;;7.28;2.28;;;11.60;99.90;;;;;;4938331;28;20238;-69
2023/01/02 06:16:53;;;;;;;1.17;1.17;;;11.60;99.90;;;;;;4926835;29;20215;-67
2023/01/02 06:19:19;;;;;;;3.75;1.38;;;11.50;99.90;;;;;;4937243;29;20227;-69
2023/01/02 06:21:46;;;;;;;2.63;2.43;;;11.50;99.90;;;;;;4936275;29;20265;-67
2023/01/02 06:24:14;;;;;;;3.07;2.10;;;11.50;99.90;;;;;;4936164;28;20460;-68
2023/01/02 06:26:41;;;;;;;6.20;2.65;;;11.60;99.90;;;;;;4941410;29;20477;-67
2023/01/02 06:29:08;;;;;;;2.60;2.50;;;11.60;99.90;;;;;;4935264;28;20228;-69
2023/01/02 06:31:35;;;;;;;2.23;2.13;;;11.60;99.90;;;;;;4931431;29;20695;-67
2023/01/02 06:34:03;;;;;;;1.40;1.27;;;11.50;99.90;;;;;;4933514;29;20463;-68
2023/01/02 06:36:31;;;;;;;2.13;2.03;;;11.50;99.90;;;;;;4936632;29;20530;-68
2023/01/02 06:38:58;;;;;;;5.22;2.05;;;11.60;99.90;;;;;;4931276;29;20224;-68
2023/01/02 06:41:26;;;;;;;1.50;1.50;;;11.60;99.90;;;;;;4933317;28;20227;-68
2023/01/02 06:43:53;;;;;;;3.13;2.05;;;11.60;99.90;;;;;;4925500;29;20276;-69
2023/01/02 06:46:22;;;;;;;8.35;2.28;;;11.60;99.90;;;;;;4936817;29;20207;-68
2023/01/02 06:48:49;;;;;;;3.13;2.83;;;11.60;99.90;;;;;;4946533;29;20234;-69
2023/01/02 06:51:18;;;;;;;2.60;1.05;;;11.60;99.90;;;;;;4940729;29;20852;-69
2023/01/02 06:53:46;;;;;;;2.53;2.33;;;11.60;99.90;;;;;;4932250;29;20233;-68
2023/01/02 06:56:16;;;;;;;2.30;2.20;;;11.60;99.90;;;;;;4936178;29;20762;-68
2023/01/02 06:58:44;;;;;;;1.30;1.30;;;11.60;99.90;;;;;;4926296;28;20498;-68
2023/01/02 07:01:13;;;;;;;1.23;1.23;;;11.50;99.90;;;;;;4928372;29;20881;-68
2023/01/02 07:03:40;;;;;;;1.43;1.33;;;11.50;99.90;;;;;;4933567;29;20578;-69
2023/01/02 07:06:09;;;;;;;4.82;4.47;;;11.50;99.90;;;;;;4924321;29;20865;-69
2023/01/02 07:08:36;;;;;;;2.30;2.30;;;11.50;99.90;;;;;;4935970;28;20206;-67
2023/01/02 07:11:08;;;;;;;10.40;2.28;;;11.50;99.90;;;;;;4927963;29;20216;-67
2023/01/02 07:13:35;;;;;;;1.67;1.67;;;11.40;99.90;;;;;;4927014;29;20588;-66
2023/01/02 07:16:04;;;;;;;3.42;3.22;;;11.40;99.90;;;;;;4927681;29;20227;-67
2023/01/02 07:18:31;;;;;;;2.17;2.08;;;11.50;99.90;;;;;;4944628;28;20235;-67
2023/01/02 07:20:58;;;;;;;1.17;1.07;;;11.50;99.90;;;;;;4931041;28;20227;-68
2023/01/02 07:23:25;;;;;;;3.70;2.07;;;11.50;99.90;;;;;;4933590;29;20460;-67
2023/01/02 07:25:54;;;;;;;12.70;1.52;;;11.40;99.90;;;;;;4926897;29;20550;-68
2023/01/02 07:28:20;;;;;;;1.70;1.60;;;11.40;99.90;;;;;;4933526;29;20208;-68
2023/01/02 07:30:47;;;;;;;4.05;2.03;;;11.40;99.90;;;;;;4931273;29;20213;-68
2023/01/02 07:33:15;;;;;;;2.17;2.08;;;11.40;99.90;;;;;;4942470;29;20236;-69
2023/01/02 07:35:42;;;;;;;3.40;1.77;;;11.40;99.90;;;;;;4940884;28;20221;-68
2023/01/02 07:38:09;;;;;;;15.77;2.92;;;11.40;99.90;;;;;;4939385;28;20225;-68
2023/01/02 07:40:36;;;;;;;2.30;1.60;;;11.50;99.90;;;;;;4930144;29;20219;-68
2023/01/02 07:43:03;;;;;;;1.83;1.65;;;11.50;99.90;;;;;;4933168;29;20224;-68
2023/01/02 07:45:30;;;;;;;1.88;1.77;;;11.50;99.90;;;;;;4933423;29;20213;-68
2023/01/02 07:47:57;;;;;;;2.08;1.98;;;11.60;99.90;;;;;;4932300;29;20574;-70
2023/01/02 07:50:25;;;;;;;1.05;1.05;;;11.60;99.90;;;;;;4929729;29;20323;-69
2023/01/02 07:52:52;;;;;;;1.90;1.37;;;11.60;99.90;;;;;;4921875;29;20238;-69
2023/01/02 07:55:19;;;;;;;5.38;2.08;;;11.60;99.90;;;;;;4932863;29;20464;-68
2023/01/02 07:57:46;;;;;;;2.73;1.63;;;11.70;99.90;;;;;;4947700;29;20203;-68
2023/01/02 08:00:14;;;;;;;1.47;1.37;;;11.60;99.90;;;;;;4937853;28;20490;-68
2023/01/02 08:02:41;;;;;;;3.13;2.93;;;11.70;99.90;;;;;;4946761;29;20658;-69
2023/01/02 08:05:08;;;;;;;1.52;1.52;;;11.80;99.90;;;;;;4934039;28;20479;-68
2023/01/02 08:07:36;;;;;;;1.83;1.73;;;11.80;99.90;;;;;;4942699;28;20282;-68
2023/01/02 08:10:03;;;;;;;2.20;2.10;;;11.80;99.90;;;;;;4925269;29;20211;-69
2023/01/02 08:12:30;;;;;;;1.40;1.40;;;11.90;99.90;;;;;;4945046;29;20483;-67
2023/01/02 08:14:56;;;;;;;4.65;2.35;;;11.90;99.90;;;;;;4938138;28;20475;-68
2023/01/02 08:17:23;;;;;;;3.88;2.05;;;11.90;99.90;;;;;;4938534;29;20203;-67
2023/01/02 08:19:50;;;;;;;2.30;2.03;;;11.90;99.90;;;;;;4923013;28;20228;-68
2023/01/02 08:22:16;;;;;;;1.70;1.63;;;12.00;99.90;;;;;;4921175;29;20511;-68
2023/01/02 08:24:44;;;;;;;2.08;1.98;;;12.00;99.90;;;;;;4934071;29;20473;-68
2023/01/02 08:27:11;;;;;;;1.20;1.07;;;12.10;99.90;;;;;;4933840;28;20223;-68
2023/01/02 08:29:38;;;;;;;3.43;1.80;;;12.10;99.90;;;;;;4941227;29;20953;-68
2023/01/02 08:32:05;;;;;;;2.00;1.90;;;12.10;99.90;;;;;;4938088;29;20492;-67
2023/01/02 08:34:34;;;;;;;1.97;1.87;;;12.10;99.90;;;;;;4934527;29;20477;-67
2023/01/02 08:37:00;;;;;;;2.50;2.33;;;12.20;99.90;;;;;;4947759;28;20483;-68
2023/01/02 08:39:28;;;;;;;2.50;1.80;;;12.10;99.90;;;;;;4931657;29;20498;-67
2023/01/02 08:41:57;;;;;;;1.10;1.10;;;12.20;99.90;;;;;;4937263;28;21239;-68
2023/01/02 08:44:24;;;;;;;3.90;2.77;;;12.20;99.90;;;;;;4934991;29;20473;-68
2023/01/02 08:46:51;;;;;;;1.60;1.60;;;12.20;99.90;;;;;;4932471;29;20490;-68
2023/01/02 08:49:18;;;;;;;3.40;2.70;;;12.20;99.90;;;;;;4929336;29;20475;-69
2023/01/02 08:51:45;;;;;;;2.50;2.17;;;12.20;99.90;;;;;;4923221;29;20875;-68
2023/01/02 08:54:11;;;;;;;3.50;2.20;;;12.20;99.90;;;;;;4925103;29;20213;-68
2023/01/02 08:56:38;;;;;;;2.57;2.30;;;12.30;99.90;;;;;;4927593;29;20464;-69
2023/01/02 08:59:09;;;;;;;1.57;1.57;;;12.30;99.90;;;;;;4931606;29;20487;-68
2023/01/02 09:01:36;;;;;;;3.37;2.23;;;12.40;99.90;;;;;;4939881;28;20493;-67
2023/01/02 09:04:04;;;;;;;2.93;1.83;;;12.40;99.90;;;;;;4934660;28;20825;-67
2023/01/02 09:06:32;;;;;;;1.63;1.57;;;12.40;99.90;;;;;;4940102;28;20480;-68
2023/01/02 09:08:59;;;;;;;2.53;1.90;;;12.50;99.90;;;;;;4921475;29;20481;-68
2023/01/02 09:11:29;;;;;;;1.70;1.60;;;12.50;99.90;;;;;;4950713;28;20483;-67
2023/01/02 09:13:58;;;;;;;2.30;2.17;;;12.50;99.90;;;;;;4928092;29;20489;-67
2023/01/02 09:16:27;;;;;;;5.57;1.70;;;12.50;99.90;;;;;;4923221;29;20841;-68
2023/01/02 09:18:55;;;;;;;13.73;2.63;;;12.50;99.90;;;;;;4926793;29;20511;-67
2023/01/02 09:21:22;;;;;;;1.80;1.70;;;12.60;99.90;;;;;;4946177;29;20503;-68
2023/01/02 09:23:49;;;;;;;2.63;1.30;;;12.60;99.90;;;;;;4940495;29;20567;-68
2023/01/02 09:26:16;;;;;;;6.63;1.20;;;12.60;99.90;;;;;;4928442;29;20480;-68
2023/01/02 09:28:42;;;;;;;3.63;2.30;;;12.60;99.90;;;;;;4941050;29;20600;-67
2023/01/02 09:31:12;;;;;;;1.63;1.63;;;12.60;99.90;;;;;;4934059;29;20488;-68
2023/01/02 09:33:40;;;;;;;1.60;1.57;;;12.60;99.90;;;;;;4924532;28;20480;-68
2023/01/02 09:36:09;;;;;;;3.30;1.53;;;12.70;99.90;;;;;;4950910;29;21006;-68
2023/01/02 09:38:36;;;;;;;1.50;1.40;;;12.60;99.90;;;;;;4928702;28;20491;-68
2023/01/02 09:41:09;;;;;;;3.20;1.77;;;12.70;99.90;;;;;;4942081;29;20464;-67
2023/01/02 09:43:40;;;;;;;3.73;3.43;;;12.70;99.90;;;;;;4945725;28;20479;-67
2023/01/02 09:46:13;;;;;;;5.00;1.97;;;12.70;99.90;;;;;;4936758;29;20468;-68
2023/01/02 09:48:41;;;;;;;1.63;1.63;;;12.80;99.90;;;;;;4943844;28;20823;-69
2023/01/02 09:51:10;;;;;;;1.53;1.00;;;12.80;99.90;;;;;;4937211;29;20988;-69
2023/01/02 09:53:37;;;;;;;4.87;1.73;;;12.80;99.90;;;;;;4935542;29;21242;-68
2023/01/02 09:56:10;;;;;;;2.80;2.50;;;12.90;99.90;;;;;;4927948;29;20468;-68
2023/01/02 09:58:44;;;;;;;2.37;2.03;;;12.90;99.90;;;;;;4922749;29;21131;-68
2023/01/02 10:01:18;;;;;;;1.80;1.50;;;13.00;99.90;;;;;;4939217;29;21015;-68
2023/01/02 10:03:55;;;;;;;1.60;1.50;;;13.00;99.90;;;;;;4928225;29;20483;-68
2023/01/02 10:06:25;;;;;;;1.30;1.30;;;13.10;99.90;;;;;;4929452;29;20480;-68
2023/01/02 10:09:02;;;;;;;2.97;1.57;;;13.20;99.90;;;;;;4923611;29;20475;-69
2023/01/02 10:11:47;;;;;;;1.50;1.47;;;13.30;99.90;;;;;;4937049;29;20492;-67
2023/01/02 10:14:23;;;;;;;1.23;1.23;;;13.40;99.90;;;;;;4926574;29;20469;-68
2023/01/02 10:16:53;;;;;;;12.40;2.43;;;13.40;99.90;;;;;;4924889;29;20967;-68
2023/01/02 10:19:33;;;;;;;1.90;1.37;;;13.50;99.90;;;;;;4929772;29;21057;-68
2023/01/02 10:22:01;;;;;;;1.57;1.47;;;13.60;99.90;;;;;;4948993;29;20505;-68
2023/01/02 10:24:39;;;;;;;1.00;1.00;;;13.60;99.90;;;;;;4923950;29;20593;-68
2023/01/02 10:27:12;;;;;;;1.13;1.13;;;13.60;99.90;;;;;;4931407;29;20462;-67
2023/01/02 10:29:44;;;;;;;2.47;2.37;;;13.60;99.90;;;;;;4942524;29;21016;-68
2023/01/02 10:32:15;;;;;;;1.20;1.20;;;13.60;99.90;;;;;;4930151;29;20560;-68
2023/01/02 10:34:50;;;;;;;2.53;1.70;;;13.70;99.90;;;;;;4937028;29;20464;-67
2023/01/02 10:37:18;;;;;;;4.17;2.03;;;13.70;99.90;;;;;;4927396;29;20485;-68
2023/01/02 10:39:48;;;;;;;1.40;1.30;;;13.70;99.90;;;;;;4933662;29;20530;-68
2023/01/02 10:42:16;;;;;;;1.53;1.47;;;13.70;99.90;;;;;;4924932;29;21023;-69
2023/01/02 10:44:45;;;;;;;2.87;2.10;;;13.70;99.90;;;;;;4935866;28;20485;-68
2023/01/02 10:47:19;;;;;;;1.30;1.30;;;13.60;99.90;;;;;;4934623;29;20475;-67
2023/01/02 10:49:48;;;;;;;2.23;1.93;;;13.60;99.90;;;;;;4926332;29;20499;-68
2023/01/02 10:52:21;;;;;;;1.80;1.67;;;13.60;99.90;;;;;;4932067;29;20549;-68
2023/01/02 10:54:50;;;;;;;2.37;2.30;;;13.60;99.90;;;;;;4948932;29;20471;-67
2023/01/02 10:57:23;;;;;;;1.47;1.47;;;13.60;99.90;;;;;;4942655;28;20480;-67
2023/01/02 10:59:55;;;;;;;4.73;2.03;;;13.60;99.90;;;;;;4949243;29;20482;-67
2023/01/02 11:02:27;;;;;;;2.63;1.80;;;13.60;99.90;;;;;;4940758;28;20496;-67
2023/01/02 11:05:00;;;;;;;1.63;1.53;;;13.60;99.90;;;;;;4935277;29;20478;-68
2023/01/02 11:07:31;;;;;;;1.10;1.10;;;13.70;99.90;;;;;;4940211;29;20493;-68
2023/01/02 11:09:58;;;;;;;0.80;0.80;;;13.70;99.90;;;;;;4940881;29;20465;-68
2023/01/02 11:12:24;;;;;;;1.83;1.30;;;13.70;99.90;;;;;;4919176;29;20950;-67
2023/01/02 11:14:51;;;;;;;1.17;1.17;;;13.60;99.90;;;;;;4918750;29;20473;-67
2023/01/02 11:17:20;;;;;;;1.43;1.40;;;13.50;99.90;;;;;;4936680;29;20483;-68
2023/01/02 11:19:50;;;;;;;0.97;0.97;;;13.50;99.90;;;;;;4920577;29;21021;-68
2023/01/02 11:22:21;;;;;;;3.13;1.83;;;13.40;99.90;;;;;;4931381;29;20572;-67
2023/01/02 11:25:00;;;;;;;1.67;1.57;;;13.30;99.90;;;;;;4958805;23;20588;-65
2023/01/02 11:27:30;;;;;;;1.63;1.63;;;13.30;99.90;;;;;;4890564;29;21118;-65
2023/01/02 11:29:58;;;;;;;1.23;1.23;;;13.20;99.90;;;;;;4893688;29;20534;-66
2023/01/02 11:32:29;;;;;;;2.10;2.00;;;13.20;99.90;;;;;;4892589;29;20477;-66
2023/01/02 11:34:58;;;;;;;1.80;1.70;;;13.10;99.90;;;;;;4899480;29;20458;-66
2023/01/02 11:37:26;;;;;;;1.37;1.37;;;13.10;99.90;;;;;;4897560;29;20537;-66
2023/01/02 11:40:01;;;;;;;1.40;1.40;;;13.10;99.90;;;;;;4903001;29;20493;-66
2023/01/02 11:45:20;;;;;;;1.20;1.13;;;13.10;99.90;;;;;;4893820;29;20478;-64
2023/01/02 11:47:49;;;;;;;1.43;1.43;;;13.10;99.90;;;;;;4901555;29;20919;-65
2023/01/02 11:50:22;;;;;;;1.13;1.13;;;13.20;99.90;;;;;;4894861;29;20475;-65
2023/01/02 11:52:55;;;;;;;1.30;1.30;;;13.20;99.90;;;;;;4898857;29;20482;-66
2023/01/02 11:55:38;;;;;;;0.93;0.93;;;13.20;99.90;;;;;;4908791;29;20493;-66
2023/01/02 11:58:14;;;;;;;1.00;1.00;;;13.20;99.90;;;;;;4901111;29;20990;-66
2023/01/02 12:00:44;;;;;;;0.63;0.63;;;13.30;99.90;;;;;;4899334;29;20490;-67
2023/01/02 12:03:16;;;;;;;0.90;0.90;;;13.30;99.90;;;;;;4898678;29;20500;-66
2023/01/02 12:05:57;;;;;;;1.20;1.20;;;13.30;99.90;;;;;;4903157;29;20560;-66
2023/01/02 12:08:35;;;;;;;1.33;1.23;;;13.30;99.90;;;;;;4905640;29;20472;-65
2023/01/02 12:11:12;;;;;;;0.93;0.93;;;13.30;99.90;;;;;;4905702;29;20472;-67
2023/01/02 12:13:58;;;;;;;0.87;0.87;;;13.30;99.90;;;;;;4891435;29;20492;-66
2023/01/02 12:16:33;;;;;;;0.60;0.60;;;13.20;99.90;;;;;;4891944;29;20990;-66
2023/01/02 12:19:29;;;;;;;0.97;0.97;;;13.20;99.90;;;;;;4899004;29;20449;-66
2023/01/02 12:22:08;;;;;;;0.80;0.80;;;13.20;99.90;;;;;;4901830;29;20484;-66
2023/01/02 12:24:53;;;;;;;3.03;1.47;;;13.10;99.90;;;;;;4905539;29;20568;-64
2023/01/02 12:27:29;;;;;;;0.93;0.93;;;13.10;99.90;;;;;;4908884;29;20481;-65
2023/01/02 12:30:03;;;;;;;1.50;1.50;;;13.00;99.90;;;;;;4902231;29;20983;-65
2023/01/02 12:32:50;;;;;;;1.63;0.60;;;12.90;99.90;;;;;;4898507;29;20472;-66
2023/01/02 12:35:47;;;;;;;1.35;0.65;;;12.80;99.90;;;;;;4898060;29;20800;-66
2023/01/02 12:38:23;;;;;;;0.43;0.43;;;12.80;99.90;;;;;;4906155;29;20213;-66
2023/01/02 12:41:09;;;;;;;1.17;1.17;;;12.70;99.90;;;;;;4907419;29;20502;-65
2023/01/02 12:44:02;;;;;;;0.60;0.60;;;12.60;99.90;;;;;;4879431;29;21115;-65
2023/01/02 12:46:48;;;;;;;0.30;0.30;;;12.50;99.90;;;;;;4903202;29;20488;-64
2023/01/02 12:49:32;;;;;;;0.23;0.23;;;12.50;99.90;;;;;;4901029;29;20482;-66
2023/01/02 12:52:08;;;;;;;0.30;0.30;;;12.40;99.90;;;;;;4899666;29;20475;-66
2023/01/02 12:54:53;;;;;;;0.37;0.37;;;12.30;99.90;;;;;;4902189;29;20476;-65
2023/01/02 12:57:29;;;;;;;0.30;0.30;;;12.30;99.90;;;;;;4912781;29;20464;-65
2023/01/02 13:00:14;;;;;;;0.37;0.37;;;12.20;99.90;;;;;;4898554;29;20867;-66
2023/01/02 13:02:59;;;;;;;0.37;0.37;;;12.10;99.90;;;;;;4894703;29;20476;-66
2023/01/02 13:05:32;;;;;;;0.20;0.20;;;12.10;99.90;;;;;;4903491;29;20494;-66
2023/01/02 13:08:04;;;;;;;0.20;0.20;;;12.00;99.90;;;;;;4913164;29;20327;-66
2023/01/02 13:10:32;;;;;;;0.43;0.43;;;11.80;99.90;;;;;;4899099;29;20463;-65
2023/01/02 13:13:01;;;;;;;0.55;0.55;;;11.80;99.90;;;;;;4913160;29;20207;-66
2023/01/02 13:15:33;;;;;;;0.50;0.50;;;11.70;99.90;;;;;;4907083;29;20231;-65
2023/01/02 13:18:07;;;;;;;0.40;0.40;;;11.70;99.90;;;;;;4916918;29;20201;-65
2023/01/02 13:20:45;;;;;;;0.20;0.20;;;11.60;99.90;;;;;;4898269;29;20223;-65
2023/01/02 13:23:34;;;;;;;0.20;0.20;;;11.50;99.90;;;;;;4900943;29;20208;-67
2023/01/02 13:26:05;;;;;;;0.10;0.10;;;11.40;99.90;;;;;;4883958;29;20244;-66
2023/01/02 13:28:40;;;;;;;0.43;0.40;;;11.40;99.90;;;;;;4898483;29;20213;-66
2023/01/02 13:31:10;;;;;;;0.68;0.22;;;11.20;99.90;;;;;;4901762;29;20195;-66
2023/01/02 13:33:39;;;;;;;0.38;0.38;;;11.20;99.90;;;;;;4896324;29;20205;-66
2023/01/02 13:36:19;;;;;;;0.20;0.20;;;11.10;99.90;;;;;;4896067;29;20240;-66
2023/01/02 13:38:50;;;;;;;0.45;0.45;;;11.10;99.90;;;;;;4899457;29;20227;-66
2023/01/02 13:41:18;;;;;;;0.95;0.95;;;11.10;99.90;;;;;;4895917;29;20227;-65
2023/01/02 13:43:52;;;;;;;0.75;0.40;;;11.00;99.90;;;;;;4892773;29;20220;-66
2023/01/02 13:46:25;;;;;;;0.32;0.32;;;11.00;99.90;;;;;;4898760;29;20239;-65
2023/01/02 13:48:53;;;;;;;0.65;0.65;;;11.00;99.90;;;;;;4900204;29;20212;-66
2023/01/02 13:51:23;;;;;;;0.82;0.30;;;10.90;99.90;;;;;;4897926;29;20204;-66
2023/01/02 13:53:52;;;;;;;0.68;0.45;;;10.90;99.90;;;;;;4902457;29;20220;-66
2023/01/02 13:56:20;;;;;;;0.20;0.20;;;10.90;99.90;;;;;;4894671;29;20242;-66
2023/01/02 13:58:51;;;;;;;1.08;0.93;;;10.90;99.90;;;;;;4892843;29;20239;-64
2023/01/02 14:02:00;;;;;;;0.35;0.35;;;10.80;99.90;;;;;;4902840;29;20225;-65
2023/01/02 14:04:39;;;;;;;0.20;0.20;;;10.70;99.90;;;;;;4894290;29;20220;-65
2023/01/02 14:07:38;;;;;;;0.20;0.20;;;10.60;99.90;;;;;;4900827;29;20710;-66
2023/01/02 14:10:39;;;;;;;0.60;0.60;;;10.50;99.90;;;;;;4911465;29;20230;-65
2023/01/02 14:13:10;;;;;;;0.20;0.20;;;10.50;99.90;;;;;;4897324;29;20588;-65
2023/01/02 14:16:00;;;;;;;0.20;0.20;;;10.50;99.90;;;;;;4897463;29;20233;-66
2023/01/02 14:18:28;;;;;;;0.30;0.30;;;10.40;99.90;;;;;;4900799;29;20321;-64
2023/01/02 14:20:57;;;;;;;0.35;0.35;;;10.40;99.90;;;;;;4903312;29;20244;-64
2023/01/02 14:23:27;;;;;;;0.20;0.20;;;10.40;99.90;;;;;;4905615;29;20230;-66
2023/01/02 14:25:54;;;;;;;0.30;0.30;;;10.40;99.90;;;;;;4903194;29;20300;-65
2023/01/02 14:28:24;;;;;;;0.45;0.40;;;10.30;99.90;;;;;;4915501;29;20669;-65
2023/01/02 14:30:52;;;;;;;0.45;0.45;;;10.30;99.90;;;;;;4901703;29;20221;-64
2023/01/02 14:33:27;;;;;;;0.73;0.73;;;10.30;99.90;;;;;;4914442;29;20204;-66
2023/01/02 14:35:57;;;;;;;0.63;0.63;;;10.30;99.90;;;;;;4895857;29;20239;-66
2023/01/02 14:38:28;;;;;;;0.32;0.32;;;10.30;99.90;;;;;;4896479;29;20680;-65
2023/01/02 14:43:28;;;;;;;0.20;0.20;;;10.30;99.90;;;;;;4902687;29;20227;-66
2023/01/02 14:43:46;;;;;;;0.30;0.30;;;10.30;99.90;;;;;;4897144;29;20213;-65
2023/01/02 14:46:16;;;;;;;0.20;0.20;;;10.30;99.90;;;;;;4912747;29;20232;-66
2023/01/02 14:48:51;;;;;;;0.20;0.20;;;10.30;99.90;;;;;;4902764;29;20221;-66
2023/01/02 14:51:25;;;;;;;0.43;0.40;;;10.30;99.90;;;;;;4898312;29;20256;-67
2023/01/02 14:53:56;;;;;;;0.57;0.57;;;10.30;99.90;;;;;;4893638;29;20216;-66
2023/01/02 14:56:26;;;;;;;0.20;0.20;;;10.30;99.90;;;;;;4898353;29;20234;-65
2023/01/02 14:58:54;;;;;;;0.38;0.38;;;10.30;99.90;;;;;;4907102;29;20232;-65
2023/01/02 15:01:23;;;;;;;0.25;0.25;;;10.30;99.90;;;;;;4906049;29;20254;-66
2023/01/02 15:03:55;;;;;;;1.10;0.40;;;10.30;99.90;;;;;;4904345;29;20245;-65
2023/01/02 15:06:37;;;;;;;0.30;0.30;;;10.30;99.90;;;;;;4906071;29;20243;-65
2023/01/02 15:09:12;;;;;;;0.80;0.80;;;10.30;99.90;;;;;;4906678;29;20219;-66
2023/01/02 15:14:35;;;;;;;0.20;0.20;;;10.20;99.90;;;;;;4895042;29;20215;-65
2023/01/02 15:17:02;;;;;;;0.40;0.30;;;10.20;99.90;;;;;;4910359;29;20243;-66
2023/01/02 15:19:32;;;;;;;0.35;0.35;;;10.20;99.90;;;;;;4908195;29;20231;-66
2023/01/02 15:22:08;;;;;;;0.30;0.30;;;10.20;99.90;;;;;;4906908;29;20241;-65
2023/01/02 15:24:36;;;;;;;0.20;0.20;;;10.10;99.90;;;;;;4903779;29;20249;-65
2023/01/02 15:27:13;;;;;;;2.88;0.63;;;10.10;99.90;;;;;;4911701;29;20241;-66
2023/01/02 15:29:46;;;;;;;1.05;0.70;;;10.10;99.90;;;;;;4893489;29;20221;-65
2023/01/02 15:32:18;;;;;;;0.45;0.38;;;10.10;99.90;;;;;;4906191;29;20240;-66
2023/01/02 15:34:49;;;;;;;0.30;0.30;;;10.10;99.90;;;;;;4894663;29;20231;-65
2023/01/02 15:37:17;;;;;;;0.40;0.40;;;10.10;99.90;;;;;;4906576;29;20218;-65
2023/01/02 15:39:48;;;;;;;0.28;0.28;;;10.10;99.90;;;;;;4905456;29;20206;-65
2023/01/02 15:45:11;;;;;;;0.30;0.30;;;10.10;99.90;;;;;;4895750;29;20893;-65
2023/01/02 15:47:40;;;;;;;0.20;0.20;;;10.00;99.90;;;;;;4910832;29;20565;-66
2023/01/02 15:50:14;;;;;;;0.20;0.20;;;10.00;99.90;;;;;;4891279;29;20215;-65
2023/01/02 15:52:40;;;;;;;0.65;0.65;;;10.00;99.90;;;;;;4901146;29;20210;-65
2023/01/02 15:55:13;;;;;;;0.85;0.60;;;10.00;99.90;;;;;;4901453;29;20211;-66
2023/01/02 15:57:46;;;;;;;0.40;0.40;;;10.00;99.90;;;;;;4887952;29;20222;-65
2023/01/02 16:00:38;;;;;;;0.50;0.47;;;10.00;99.90;;;;;;4901774;29;20303;-66
2023/01/02 16:03:05;;;;;;;1.20;0.50;;;10.00;99.90;;;;;;4907186;29;20217;-66
2023/01/02 16:05:46;;;;;;;0.22;0.22;;;10.00;99.90;;;;;;4902279;29;20229;-64
2023/01/02 16:08:19;;;;;;;0.40;0.40;;;9.90;99.90;;;;;;4909119;29;20222;-65
2023/01/02 16:10:48;;;;;;;0.40;0.40;;;9.90;99.90;;;;;;4906401;29;20320;-65
2023/01/02 16:16:05;;;;;;;0.20;0.20;;;9.80;99.90;;;;;;4912115;29;20247;-65
2023/01/02 16:18:37;;;;;;;1.42;1.42;;;9.80;99.90;;;;;;4897082;29;20222;-66
2023/01/02 16:21:05;;;;;;;1.00;0.75;;;9.80;99.90;;;;;;4897614;29;20240;-65
2023/01/02 16:23:32;;;;;;;1.15;1.15;;;9.80;99.90;;;;;;4899777;29;20311;-66
2023/01/02 16:26:03;;;;;;;1.00;0.90;;;9.80;99.90;;;;;;4912993;29;20912;-64
2023/01/02 16:28:30;;;;;;;0.77;0.77;;;9.80;99.90;;;;;;4894852;29;20619;-67
2023/01/02 16:31:08;;;;;;;1.05;0.40;;;9.70;99.90;;;;;;4893845;29;20209;-67
2023/01/02 16:33:34;;;;;;;1.50;0.47;;;9.60;99.90;;;;;;4901243;29;20270;-66
2023/01/02 16:36:08;;;;;;;3.17;0.98;;;9.60;99.90;;;;;;4905572;29;20244;-66
2023/01/02 16:38:46;;;;;;;2.40;0.70;;;9.50;99.90;;;;;;4907545;29;20666;-67
2023/01/02 16:42:32;;;;;;;0.82;0.82;;;9.40;99.90;;;;;;4909033;29;20225;-66
2023/01/02 17:28:43;;;;;;;1.50;1.33;;;9.20;99.90;;;;;;1980454;23;20332;-66
2023/01/02 17:31:14;;;;;;;1.55;1.33;;;9.20;99.90;;;;;;4891142;29;20304;-66
2023/01/02 17:33:40;;;;;;;2.20;2.00;;;9.20;99.90;;;;;;4894093;29;20214;-66
2023/01/02 17:36:08;;;;;;;1.38;1.27;;;9.30;99.90;;;;;;4889805;29;20287;-65
2023/01/02 17:38:34;;;;;;;1.35;1.13;;;9.30;99.90;;;;;;4890784;29;20231;-65
2023/01/02 17:41:01;;;;;;;1.10;1.10;;;9.30;99.90;;;;;;4894682;29;20209;-65
2023/01/02 17:43:28;;;;;;;7.07;1.40;;;9.30;99.90;;;;;;4891320;29;20226;-64
2023/01/02 17:45:56;;;;;;;1.35;1.30;;;9.30;99.90;;;;;;4893728;29;20577;-64
2023/01/02 17:48:23;;;;;;;1.17;1.17;;;9.30;99.90;;;;;;4891720;29;20234;-67
2023/01/02 17:50:51;;;;;;;1.90;1.75;;;9.30;99.90;;;;;;4893180;29;20207;-64
2023/01/02 17:53:18;;;;;;;1.15;1.15;;;9.30;99.90;;;;;;4892167;29;20537;-65
2023/01/02 17:55:50;;;;;;;2.47;1.85;;;9.30;99.90;;;;;;4891328;29;20214;-65
2023/01/02 17:58:17;;;;;;;2.13;2.03;;;9.30;99.90;;;;;;4891374;29;20313;-65
2023/01/02 18:00:44;;;;;;;1.48;1.38;;;9.30;99.90;;;;;;4892069;29;20206;-65
2023/01/02 18:03:12;;;;;;;2.22;2.10;;;9.30;99.90;;;;;;4894072;29;20245;-65
2023/01/02 18:05:39;;;;;;;1.98;1.70;;;9.30;99.90;;;;;;4889672;29;20222;-66
2023/01/02 18:08:05;;;;;;;2.33;2.22;;;9.30;99.90;;;;;;4893552;29;20210;-66
2023/01/02 18:10:35;;;;;;;4.45;2.80;;;9.30;99.90;;;;;;4881867;29;20560;-66
2023/01/02 18:13:02;;;;;;;2.72;2.63;;;9.30;99.90;;;;;;4877552;29;20683;-66
2023/01/02 18:15:29;;;;;;;1.35;1.30;;;9.30;99.90;;;;;;4887840;29;20217;-66
2023/01/02 18:17:59;;;;;;;2.13;2.03;;;9.20;99.90;;;;;;4895953;29;20235;-66
2023/01/02 18:20:28;;;;;;;2.67;2.47;;;9.20;99.90;;;;;;4886451;29;20306;-66
2023/01/02 18:22:56;;;;;;;2.47;2.38;;;9.20;99.90;;;;;;4895796;29;20722;-66
2023/01/02 18:25:26;;;;;;;2.20;2.10;;;9.20;99.90;;;;;;4894754;29;20316;-66
2023/01/02 18:27:56;;;;;;;1.30;1.30;;;9.20;99.90;;;;;;4883862;29;20278;-66
2023/01/02 18:30:24;;;;;;;2.83;1.40;;;9.20;99.90;;;;;;4886933;29;20461;-65
2023/01/02 18:33:00;;;;;;;1.30;1.30;;;9.20;99.90;;;;;;4895556;29;20206;-66
2023/01/02 18:35:31;;;;;;;1.88;1.77;;;9.30;99.90;;;;;;4888715;29;20205;-65
2023/01/02 18:37:59;;;;;;;1.20;1.20;;;9.30;99.90;;;;;;4885717;29;20224;-66
2023/01/02 18:40:30;;;;;;;1.52;1.42;;;9.30;99.90;;;;;;4889042;29;20206;-65
2023/01/02 18:43:00;;;;;;;1.27;1.27;;;9.20;99.90;;;;;;4888930;29;20239;-66
2023/01/02 18:45:27;;;;;;;11.30;1.88;;;9.30;99.90;;;;;;4884657;29;20221;-65
2023/01/02 18:47:56;;;;;;;1.25;1.25;;;9.30;99.90;;;;;;4893899;29;20295;-66
2023/01/02 18:50:37;;;;;;;8.98;1.88;;;9.20;99.90;;;;;;4886125;29;20273;-65
2023/01/02 18:53:15;;;;;;;1.17;1.17;;;9.20;99.90;;;;;;4888179;29;20262;-66
2023/01/02 18:55:42;;;;;;;0.95;0.82;;;9.30;99.90;;;;;;4889550;29;20222;-65
2023/01/02 18:58:32;;;;;;;2.55;1.80;;;9.30;99.90;;;;;;4892885;29;20229;-66
2023/01/02 19:01:00;;;;;;;6.05;1.05;;;9.30;99.90;;;;;;4887332;29;20210;-66
2023/01/02 19:03:27;;;;;;;1.83;1.83;;;9.30;99.90;;;;;;4893923;29;20327;-66
2023/01/02 19:05:56;;;;;;;1.27;1.05;;;9.30;99.90;;;;;;4885314;29;20235;-66